Adams Mills, Ohio
Current Conditions -  °F | °C
As of 9:53 AM on Monday 24 Nov 2014 (Local Time) from KZZV Reporting Station
Overcast Overcast  
Wind Chill: 63°   Ceiling: 5500
Heat Index: 63°   Visibility: 10mi
Dew Point: 49°   Wind: 22mph
Humidity: 60%   Direction: 190°S
Pressure: 29.38"   Gusts: 38mph
Location:  40.1482°N, 82.0354°W
Report Text: KZZV 241453Z AUTO 19019G33KT 10SM SCT044 BKN055 OVC070 17/09 A2938 RMK AO2 PK WND 18033/1435 SLP947 T01720094 55006
Loading
Personal Weather Stations






























Interactive Weather Map New forecast layout! Learn more

10-Day Weather Forecast

Advertisements
Track Severe Weather on mobile